Time;durP1;ratioP1;P1;durP2;ratioP2;P2;SDS_P1;SDS_P2;PMS_P1;PMS_P2;Temp;Humidity;BMP_temperature;BMP_pressure;BME280_temperature;BME280_humidity;BME280_pressure;Samples;Min_cycle;Max_cycle;Signal;HPM_P1;HPM_P2
2022/08/17 00:00:53;;;;;;;11.73;9.13;;;19.00;99.90;;;;;;5030517;28;20025;-45
2022/08/17 00:03:26;;;;;;;11.60;9.10;;;19.00;99.90;;;;;;5030545;28;20034;-45
2022/08/17 00:05:58;;;;;;;11.95;9.90;;;19.00;99.90;;;;;;5030693;28;20487;-45
2022/08/17 00:08:36;;;;;;;12.60;10.63;;;19.00;99.90;;;;;;5030790;28;20036;-50
2022/08/17 00:11:09;;;;;;;10.93;9.82;;;19.00;99.90;;;;;;5030212;28;20052;-49
2022/08/17 00:13:44;;;;;;;12.57;10.15;;;19.00;99.90;;;;;;5030506;28;20013;-49
2022/08/17 00:16:30;;;;;;;11.32;10.13;;;19.00;99.90;;;;;;5030654;28;20029;-53
2022/08/17 00:18:59;;;;;;;13.95;9.98;;;18.90;99.90;;;;;;5017777;28;20431;-55
2022/08/17 00:21:25;;;;;;;;;;;18.90;99.90;;;;;;5030760;28;20029;-51
2022/08/17 00:23:52;;;;;;;12.82;9.68;;;18.90;99.90;;;;;;5030545;28;19916;-48
2022/08/17 00:26:19;;;;;;;11.98;9.98;;;18.80;99.90;;;;;;5029976;28;20079;-50
2022/08/17 00:28:44;;;;;;;11.80;10.48;;;18.80;99.90;;;;;;5028465;28;20253;-46
2022/08/17 00:31:10;;;;;;;11.82;10.63;;;18.80;99.90;;;;;;5030321;28;20423;-51
2022/08/17 00:33:39;;;;;;;12.55;10.82;;;18.80;99.90;;;;;;5030157;28;20026;-52
2022/08/17 00:36:06;;;;;;;12.30;10.18;;;18.80;99.90;;;;;;5030521;28;20040;-54
2022/08/17 00:38:33;;;;;;;11.82;10.45;;;18.80;99.90;;;;;;5033511;28;20057;-52
2022/08/17 00:41:05;;;;;;;12.50;11.18;;;18.80;99.90;;;;;;5033670;28;20033;-45
2022/08/17 00:43:36;;;;;;;13.23;11.15;;;18.80;99.90;;;;;;5033668;28;20044;-49
2022/08/17 00:46:06;;;;;;;13.88;11.38;;;18.80;99.90;;;;;;5020580;28;20075;-52
2022/08/17 00:48:33;;;;;;;13.43;10.75;;;18.80;99.90;;;;;;5034254;28;20108;-49
2022/08/17 00:51:06;;;;;;;12.02;10.73;;;18.80;99.90;;;;;;5032298;28;20052;-45
2022/08/17 00:53:35;;;;;;;12.63;11.23;;;18.80;99.90;;;;;;5033976;28;20473;-45
2022/08/17 00:56:03;;;;;;;13.07;11.18;;;18.80;99.90;;;;;;5032426;28;20045;-51
2022/08/17 00:58:31;;;;;;;16.85;11.25;;;18.80;99.90;;;;;;5033902;28;20069;-44
2022/08/17 01:01:00;;;;;;;12.65;11.35;;;18.80;99.90;;;;;;5033468;28;20021;-47
2022/08/17 01:03:28;;;;;;;12.98;11.48;;;18.80;99.90;;;;;;5033703;28;20041;-44
2022/08/17 01:05:57;;;;;;;13.18;11.35;;;18.80;99.90;;;;;;5033678;28;20069;-45
2022/08/17 01:08:25;;;;;;;;;;;18.80;99.90;;;;;;5034031;28;20017;-44
2022/08/17 01:10:54;;;;;;;13.47;11.97;;;18.80;99.90;;;;;;5033404;28;19963;-49
2022/08/17 01:13:21;;;;;;;13.23;11.38;;;18.70;99.90;;;;;;5033664;28;20025;-48
2022/08/17 01:16:02;;;;;;;14.82;11.82;;;18.70;99.90;;;;;;5033491;28;20034;-45
2022/08/17 01:18:28;;;;;;;13.32;11.93;;;18.60;99.90;;;;;;5032170;28;20419;-49
2022/08/17 01:20:57;;;;;;;16.27;12.63;;;18.60;99.90;;;;;;5033490;28;20497;-46
2022/08/17 01:23:26;;;;;;;13.82;12.10;;;18.50;99.90;;;;;;5033225;28;20029;-51
2022/08/17 01:25:55;;;;;;;15.98;12.75;;;18.50;99.90;;;;;;5033493;28;20031;-53
2022/08/17 01:28:21;;;;;;;14.15;12.73;;;18.50;99.90;;;;;;5033202;28;20029;-48
2022/08/17 01:30:48;;;;;;;15.93;12.95;;;18.40;99.90;;;;;;5033019;28;20030;-44
2022/08/17 01:33:14;;;;;;;22.52;14.15;;;18.40;99.90;;;;;;5032840;28;20358;-47
2022/08/17 01:35:40;;;;;;;18.55;14.65;;;18.40;99.90;;;;;;5033044;28;20028;-51
2022/08/17 01:38:08;;;;;;;16.20;14.48;;;18.30;99.90;;;;;;5033169;28;20041;-51
2022/08/17 01:40:37;;;;;;;16.52;14.15;;;18.30;99.90;;;;;;5032943;28;20200;-46
2022/08/17 01:43:10;;;;;;;17.13;13.32;;;18.30;99.90;;;;;;5033042;28;20036;-49
2022/08/17 01:45:46;;;;;;;16.38;14.52;;;18.20;99.90;;;;;;5032886;28;20080;-47
2022/08/17 01:48:12;;;;;;;15.25;13.13;;;18.20;99.90;;;;;;5032283;28;20025;-52
2022/08/17 01:50:41;;;;;;;15.73;12.80;;;18.10;99.90;;;;;;5031973;28;20546;-44
2022/08/17 01:53:12;;;;;;;15.93;13.85;;;18.10;99.90;;;;;;5032849;28;20037;-46
2022/08/17 01:55:44;;;;;;;14.85;13.27;;;18.10;99.90;;;;;;5031414;28;20053;-53
2022/08/17 01:58:10;;;;;;;18.42;14.60;;;18.00;99.90;;;;;;5032734;28;20033;-44
2022/08/17 02:00:39;;;;;;;14.63;13.13;;;17.90;99.90;;;;;;5032489;28;20029;-45
2022/08/17 02:03:05;;;;;;;14.88;13.38;;;18.00;99.90;;;;;;5032509;28;20037;-52
2022/08/17 02:05:31;;;;;;;16.52;14.48;;;17.90;99.90;;;;;;5032532;28;20104;-45
2022/08/17 02:07:58;;;;;;;17.92;15.18;;;17.90;99.90;;;;;;5032186;28;20388;-50
2022/08/17 02:10:25;;;;;;;16.55;14.73;;;17.90;99.90;;;;;;5032473;28;20092;-53
2022/08/17 02:12:50;;;;;;;23.63;16.00;;;17.90;99.90;;;;;;5032467;28;20030;-45
2022/08/17 02:15:16;;;;;;;19.15;15.80;;;17.90;99.90;;;;;;5032293;28;20679;-51
2022/08/17 02:17:42;;;;;;;16.77;15.02;;;17.80;99.90;;;;;;5032368;28;20021;-51
2022/08/17 02:20:09;;;;;;;16.75;14.98;;;17.80;99.90;;;;;;5031957;28;20057;-47
2022/08/17 02:22:37;;;;;;;18.35;14.07;;;17.80;99.90;;;;;;5031784;28;20037;-44
2022/08/17 02:25:05;;;;;;;15.95;14.18;;;17.70;99.90;;;;;;5030906;28;20036;-44
2022/08/17 02:27:30;;;;;;;16.15;14.15;;;17.70;99.90;;;;;;5032172;28;20428;-44
2022/08/17 02:29:56;;;;;;;16.48;14.57;;;17.70;99.90;;;;;;5032089;28;20033;-47
2022/08/17 02:32:25;;;;;;;17.90;15.98;;;17.60;99.90;;;;;;5031942;28;20056;-46
2022/08/17 02:34:51;;;;;;;18.30;16.10;;;17.60;99.90;;;;;;5030730;28;20029;-45
2022/08/17 02:37:17;;;;;;;18.58;16.65;;;17.60;99.90;;;;;;5031637;28;20369;-47
2022/08/17 02:39:46;;;;;;;20.35;16.30;;;17.60;99.90;;;;;;5031642;28;20419;-45
2022/08/17 02:42:13;;;;;;;18.88;16.73;;;17.60;99.90;;;;;;5031775;28;20059;-50
2022/08/17 02:44:40;;;;;;;21.02;17.02;;;17.60;99.90;;;;;;5031671;28;20026;-44
2022/08/17 02:47:07;;;;;;;21.52;18.10;;;17.50;99.90;;;;;;5031801;28;20036;-46
2022/08/17 02:49:33;;;;;;;17.80;15.90;;;17.50;99.90;;;;;;5031636;28;20036;-44
2022/08/17 02:52:02;;;;;;;21.65;17.33;;;17.50;99.90;;;;;;5031530;28;20029;-49
2022/08/17 02:54:28;;;;;;;18.58;16.58;;;17.50;99.90;;;;;;5031735;28;20477;-51
2022/08/17 02:56:54;;;;;;;16.15;14.10;;;17.50;99.90;;;;;;5031528;28;20054;-49
2022/08/17 02:59:19;;;;;;;19.58;16.15;;;17.50;99.90;;;;;;5031616;28;20032;-49
2022/08/17 03:01:45;;;;;;;18.15;16.13;;;17.40;99.90;;;;;;5031422;28;20030;-46
2022/08/17 03:04:11;;;;;;;17.27;14.30;;;17.30;99.90;;;;;;5031463;28;20021;-44
2022/08/17 03:06:37;;;;;;;15.68;13.98;;;17.30;99.90;;;;;;5031374;28;20049;-49
2022/08/17 03:09:03;;;;;;;18.90;14.55;;;17.30;99.90;;;;;;5031123;28;20025;-53
2022/08/17 03:11:29;;;;;;;16.10;14.48;;;17.20;99.90;;;;;;5031094;28;20056;-47
2022/08/17 03:13:54;;;;;;;17.48;14.75;;;17.20;99.90;;;;;;5031225;28;20030;-45
2022/08/17 03:16:21;;;;;;;16.20;14.50;;;17.20;99.90;;;;;;5031217;28;20021;-47
2022/08/17 03:18:47;;;;;;;16.35;14.63;;;17.20;99.90;;;;;;5031182;28;20045;-45
2022/08/17 03:21:13;;;;;;;20.88;17.60;;;17.20;99.90;;;;;;5031062;28;20476;-53
2022/08/17 03:23:40;;;;;;;22.50;19.55;;;17.20;99.90;;;;;;5031146;28;20048;-52
2022/08/17 03:26:09;;;;;;;25.42;20.15;;;17.30;99.90;;;;;;5030934;28;20064;-47
2022/08/17 03:28:36;;;;;;;20.70;18.20;;;17.30;99.90;;;;;;5031373;28;20053;-54
2022/08/17 03:31:03;;;;;;;24.75;19.63;;;17.30;99.90;;;;;;5031146;28;20025;-54
2022/08/17 03:33:28;;;;;;;22.63;18.35;;;17.40;99.90;;;;;;5031143;28;20519;-54
2022/08/17 03:35:54;;;;;;;21.33;17.75;;;17.50;99.90;;;;;;5031079;28;20033;-47
2022/08/17 03:38:20;;;;;;;20.88;18.13;;;17.40;99.90;;;;;;5031100;28;20041;-50
2022/08/17 03:40:47;;;;;;;20.45;18.25;;;17.40;99.90;;;;;;5030990;28;20130;-48
2022/08/17 03:43:14;;;;;;;19.55;17.20;;;17.50;99.90;;;;;;5030937;28;20129;-47
2022/08/17 03:57:06;;;;;;;21.52;17.73;;;17.40;99.90;;;;;;5031076;28;20448;-43
2022/08/17 03:59:32;;;;;;;21.08;17.67;;;17.40;99.90;;;;;;5030667;28;20472;-45
2022/08/17 04:02:03;;;;;;;21.42;17.23;;;17.40;99.90;;;;;;5030635;28;20044;-47
2022/08/17 04:04:28;;;;;;;21.17;17.25;;;17.40;99.90;;;;;;5030826;28;20049;-48
2022/08/17 04:06:55;;;;;;;20.88;16.88;;;17.40;99.90;;;;;;5030575;28;20072;-46
2022/08/17 04:09:20;;;;;;;18.35;16.25;;;17.30;99.90;;;;;;5030835;28;20017;-48
2022/08/17 04:11:46;;;;;;;20.67;17.10;;;17.30;99.90;;;;;;5030889;28;20049;-44
2022/08/17 04:14:12;;;;;;;18.85;16.27;;;17.30;99.90;;;;;;5034634;28;20183;-46
2022/08/17 04:16:38;;;;;;;19.48;17.27;;;17.20;99.90;;;;;;5034032;28;20392;-49
2022/08/17 04:19:05;;;;;;;21.60;16.23;;;17.20;99.90;;;;;;5034479;28;20029;-51
2022/08/17 04:21:31;;;;;;;22.02;16.67;;;17.10;99.90;;;;;;5033986;28;20034;-46
2022/08/17 04:23:57;;;;;;;21.23;18.90;;;17.10;99.90;;;;;;5034463;28;20033;-47
2022/08/17 04:26:23;;;;;;;21.02;17.58;;;17.10;99.90;;;;;;5034669;28;20036;-45
2022/08/17 04:28:49;;;;;;;21.10;17.23;;;17.00;99.90;;;;;;5034285;28;20108;-46
2022/08/17 04:31:15;;;;;;;19.25;16.58;;;17.00;99.90;;;;;;5034556;28;20029;-49
2022/08/17 04:33:45;;;;;;;21.05;16.92;;;17.00;99.90;;;;;;5033058;28;20026;-50
2022/08/17 04:36:14;;;;;;;20.77;17.02;;;16.90;99.90;;;;;;5034250;28;20543;-50
2022/08/17 04:38:42;;;;;;;18.50;15.88;;;16.90;99.90;;;;;;5034372;28;20030;-55
2022/08/17 04:43:57;;;;;;;19.60;17.50;;;16.80;99.90;;;;;;5034495;28;20048;-45
2022/08/17 04:46:26;;;;;;;19.98;16.80;;;16.80;99.90;;;;;;5033870;28;20026;-50
2022/08/17 04:48:55;;;;;;;20.08;17.67;;;16.80;99.90;;;;;;5034194;28;20056;-44
2022/08/17 04:51:32;;;;;;;22.13;17.73;;;16.80;99.90;;;;;;5033979;28;20503;-49
2022/08/17 04:54:04;;;;;;;22.70;18.35;;;16.80;99.90;;;;;;5034124;28;20120;-49
2022/08/17 04:56:31;;;;;;;22.73;17.77;;;16.80;99.90;;;;;;5033861;28;20075;-52
2022/08/17 04:59:04;;;;;;;21.20;18.02;;;16.80;99.90;;;;;;5033982;28;20108;-46
2022/08/17 05:01:33;;;;;;;22.40;18.95;;;16.70;99.90;;;;;;5033755;28;20025;-44
2022/08/17 05:04:01;;;;;;;22.85;19.23;;;16.70;99.90;;;;;;5033782;28;20480;-49
2022/08/17 05:06:28;;;;;;;23.77;19.20;;;16.80;99.90;;;;;;5033760;28;20029;-49
2022/08/17 05:08:54;;;;;;;25.45;19.48;;;16.80;99.90;;;;;;5032990;28;20026;-49
2022/08/17 05:11:21;;;;;;;28.15;21.60;;;16.80;99.90;;;;;;5032588;28;20551;-53
2022/08/17 05:13:48;;;;;;;27.75;22.42;;;16.90;99.90;;;;;;5032725;28;20029;-45
2022/08/17 05:16:15;;;;;;;26.65;22.42;;;16.90;99.90;;;;;;5033107;28;20511;-44
2022/08/17 05:18:41;;;;;;;27.08;21.50;;;16.90;99.90;;;;;;5033790;28;20113;-52
2022/08/17 05:21:07;;;;;;;30.00;22.10;;;16.90;99.90;;;;;;5033534;28;20045;-47
2022/08/17 05:23:34;;;;;;;27.90;21.70;;;17.00;99.90;;;;;;5032266;28;20129;-44
2022/08/17 05:25:59;;;;;;;28.42;22.25;;;17.00;99.90;;;;;;5033148;28;20033;-48
2022/08/17 05:28:26;;;;;;;27.38;21.73;;;17.10;99.90;;;;;;5033289;28;20025;-44
2022/08/17 05:30:53;;;;;;;28.48;22.45;;;17.20;99.90;;;;;;5033222;28;20048;-50
2022/08/17 05:33:22;;;;;;;29.00;23.00;;;17.20;99.90;;;;;;5033220;28;20029;-48
2022/08/17 05:35:50;;;;;;;29.92;21.92;;;17.20;99.90;;;;;;5033047;28;20029;-50
2022/08/17 05:38:19;;;;;;;25.00;20.48;;;17.20;99.90;;;;;;5033173;28;20439;-45
2022/08/17 05:40:45;;;;;;;26.30;22.08;;;17.30;99.90;;;;;;5032997;28;20036;-47
2022/08/17 05:43:16;;;;;;;27.35;21.92;;;17.30;99.90;;;;;;5032740;28;20080;-51
2022/08/17 05:46:14;;;;;;;26.98;22.23;;;17.30;99.90;;;;;;5030973;28;20389;-49
2022/08/17 05:49:01;;;;;;;29.77;23.02;;;17.30;99.90;;;;;;5030222;28;20030;-51
2022/08/17 05:51:32;;;;;;;34.53;24.70;;;17.30;99.90;;;;;;5028353;28;20048;-48
2022/08/17 05:54:14;;;;;;;32.53;23.98;;;17.40;99.90;;;;;;5028967;28;20330;-51
2022/08/17 05:56:48;;;;;;;27.98;22.15;;;17.40;99.90;;;;;;5028721;28;20053;-50
2022/08/17 05:59:35;;;;;;;29.08;23.08;;;17.60;99.90;;;;;;5016917;28;20022;-52
2022/08/17 06:02:09;;;;;;;32.50;25.00;;;17.70;99.90;;;;;;5019931;28;20033;-49
2022/08/17 06:04:59;;;;;;;35.13;27.45;;;17.80;99.90;;;;;;5023046;28;20491;-48
2022/08/17 06:07:37;;;;;;;37.05;26.27;;;17.80;99.90;;;;;;5031763;28;20029;-47
2022/08/17 06:10:19;;;;;;;34.22;26.80;;;17.90;99.90;;;;;;5031784;28;20029;-48
2022/08/17 06:13:19;;;;;;;32.03;25.13;;;17.90;99.90;;;;;;5030100;28;20029;-47
2022/08/17 06:16:06;;;;;;;35.17;26.73;;;17.90;99.90;;;;;;5030421;28;20021;-45
2022/08/17 06:18:44;;;;;;;33.83;26.77;;;17.90;99.90;;;;;;5032224;28;20029;-49
2022/08/17 06:21:14;;;;;;;31.88;24.70;;;18.00;99.90;;;;;;5032125;28;20025;-51
2022/08/17 06:24:02;;;;;;;;;;;18.00;99.90;;;;;;5032325;28;20136;-50
2022/08/17 06:26:32;;;;;;;32.55;24.00;;;18.30;99.90;;;;;;5040076;28;19905;-44
2022/08/17 06:29:18;;;;;;;28.17;22.85;;;18.80;99.90;;;;;;5031735;28;20037;-44
2022/08/17 06:31:44;;;;;;;27.75;21.20;;;18.90;99.90;;;;;;5030393;28;20033;-43
2022/08/17 06:34:11;;;;;;;27.08;22.73;;;19.00;99.90;;;;;;5031703;28;20041;-49
2022/08/17 06:36:52;;;;;;;24.98;20.52;;;19.10;99.90;;;;;;5031631;28;20104;-50
2022/08/17 06:39:33;;;;;;;26.35;20.48;;;19.10;99.90;;;;;;5025729;28;20017;-43
2022/08/17 06:42:10;;;;;;;26.20;20.38;;;19.30;99.90;;;;;;5031168;28;20040;-44
2022/08/17 06:44:55;;;;;;;21.92;18.83;;;19.70;99.90;;;;;;5030539;28;20022;-44
2022/08/17 06:47:32;;;;;;;19.77;17.23;;;20.50;99.90;;;;;;5029758;28;20020;-44
2022/08/17 06:50:30;;;;;;;18.42;16.40;;;21.60;99.90;;;;;;5031023;28;20080;-45
2022/08/17 06:53:23;;;;;;;16.55;13.48;;;22.60;99.90;;;;;;5025319;28;20052;-43
2022/08/17 06:55:55;;;;;;;15.35;12.70;;;24.10;99.90;;;;;;5039583;28;20365;-43
2022/08/17 06:58:23;;;;;;;15.60;13.82;;;25.00;98.20;;;;;;5029001;28;20026;-51
2022/08/17 07:00:52;;;;;;;15.97;12.37;;;25.50;95.70;;;;;;5031489;28;20026;-46
2022/08/17 07:03:19;;;;;;;13.98;12.48;;;26.10;95.80;;;;;;5030457;28;20302;-44
2022/08/17 07:05:53;;;;;;;12.10;10.50;;;26.70;94.10;;;;;;5029740;28;20048;-45
2022/08/17 07:08:39;;;;;;;11.85;10.40;;;26.80;92.70;;;;;;5029842;28;20033;-44
2022/08/17 07:11:13;;;;;;;11.40;9.38;;;27.30;93.70;;;;;;5029988;28;20049;-49
2022/08/17 07:13:40;;;;;;;11.23;9.45;;;27.90;92.40;;;;;;5031235;28;20103;-48
2022/08/17 07:16:13;;;;;;;12.05;10.73;;;27.70;90.80;;;;;;5030766;28;20427;-51
2022/08/17 07:18:40;;;;;;;11.27;9.43;;;27.00;91.70;;;;;;5027449;28;20026;-48
2022/08/17 07:21:20;;;;;;;12.18;8.77;;;26.20;92.40;;;;;;5031171;28;20036;-48
2022/08/17 07:24:19;;;;;;;8.48;7.18;;;25.40;93.70;;;;;;5031187;28;20528;-46
2022/08/17 07:26:48;;;;;;;9.00;6.38;;;24.70;94.90;;;;;;5029682;28;20061;-45
2022/08/17 07:29:16;;;;;;;8.48;6.40;;;24.20;95.40;;;;;;5027964;28;20029;-53
2022/08/17 07:31:42;;;;;;;9.63;6.80;;;23.70;95.90;;;;;;5030951;28;20104;-45
2022/08/17 07:34:13;;;;;;;7.78;6.40;;;23.20;97.00;;;;;;5029294;28;20054;-47
2022/08/17 07:36:40;;;;;;;10.38;7.13;;;22.90;97.30;;;;;;5023232;28;20033;-45
2022/08/17 07:39:08;;;;;;;9.98;7.28;;;22.50;98.20;;;;;;5018891;28;20026;-49
2022/08/17 07:41:40;;;;;;;10.90;7.57;;;22.20;99.00;;;;;;5031002;28;20037;-50
2022/08/17 07:44:15;;;;;;;9.05;7.63;;;22.10;99.90;;;;;;5025234;28;20037;-48
2022/08/17 07:49:41;;;;;;;11.68;7.38;;;21.90;99.90;;;;;;5025114;28;20049;-48
2022/08/17 07:52:10;;;;;;;9.25;7.47;;;21.90;99.90;;;;;;5030819;28;20033;-48
2022/08/17 07:54:37;;;;;;;;;;;21.80;99.90;;;;;;5031140;28;20388;-44
2022/08/17 07:57:06;;;;;;;12.10;7.50;;;21.90;99.90;;;;;;5030251;28;19909;-49
2022/08/17 07:59:36;;;;;;;9.57;7.20;;;21.90;99.90;;;;;;5030474;28;20022;-45
2022/08/17 08:02:11;;;;;;;11.30;7.15;;;21.90;99.90;;;;;;5027990;28;20116;-46
2022/08/17 08:04:42;;;;;;;9.63;7.63;;;21.90;99.90;;;;;;5026234;28;20112;-46
2022/08/17 08:07:22;;;;;;;10.02;6.88;;;21.90;99.90;;;;;;5018900;28;20032;-50
2022/08/17 08:10:06;;;;;;;;;;;21.90;99.90;;;;;;5057467;28;20034;-47
2022/08/17 08:12:44;;;;;;;12.45;6.97;;;21.80;99.90;;;;;;5029749;28;19917;-47
2022/08/17 08:15:24;;;;;;;9.85;6.10;;;21.80;99.90;;;;;;5029504;28;20100;-45
2022/08/17 08:17:56;;;;;;;9.75;6.43;;;21.80;99.90;;;;;;5025683;28;20029;-50
2022/08/17 08:20:48;;;;;;;8.82;6.90;;;21.70;99.90;;;;;;5027039;28;20045;-45
2022/08/17 08:23:45;;;;;;;9.20;7.30;;;21.70;99.90;;;;;;5020981;28;20060;-49
2022/08/17 08:26:35;;;;;;;9.25;7.45;;;21.60;99.90;;;;;;5026880;28;20041;-50
2022/08/17 08:29:10;;;;;;;9.13;6.68;;;21.40;99.90;;;;;;5026323;28;20100;-51
2022/08/17 08:32:07;;;;;;;8.52;6.72;;;21.40;99.90;;;;;;5024335;28;20026;-51
2022/08/17 08:35:06;;;;;;;11.27;6.75;;;21.50;99.90;;;;;;5020333;28;20030;-56
2022/08/17 08:37:59;;;;;;;8.70;6.40;;;21.50;99.90;;;;;;5020768;28;20104;-47
2022/08/17 08:40:44;;;;;;;10.00;6.30;;;21.50;99.90;;;;;;5029242;28;20105;-52
2022/08/17 08:43:47;;;;;;;8.32;5.95;;;21.50;99.90;;;;;;5029538;28;20493;-50
2022/08/17 08:46:34;;;;;;;8.85;5.20;;;21.50;99.90;;;;;;5023909;28;20025;-42
2022/08/17 08:49:24;;;;;;;8.13;5.18;;;21.50;99.90;;;;;;5029825;28;20583;-40
2022/08/17 08:51:58;;;;;;;8.15;5.35;;;21.60;99.90;;;;;;5030111;28;20040;-44
2022/08/17 08:54:44;;;;;;;7.63;5.82;;;21.70;99.90;;;;;;5026576;28;20044;-51
2022/08/17 08:57:20;;;;;;;9.52;5.82;;;21.80;99.90;;;;;;5026671;28;20079;-46
2022/08/17 09:00:04;;;;;;;8.50;6.10;;;22.00;99.90;;;;;;5032457;28;20021;-47
2022/08/17 09:03:07;;;;;;;6.00;4.85;;;22.20;99.90;;;;;;5032590;28;20069;-47
2022/08/17 09:05:41;;;;;;;7.47;5.00;;;22.50;99.90;;;;;;5032233;28;20021;-44
2022/08/17 09:08:15;;;;;;;7.90;5.10;;;22.90;99.50;;;;;;5031917;28;20041;-49
2022/08/17 09:10:58;;;;;;;8.45;5.10;;;23.10;97.90;;;;;;5032599;28;20049;-46
2022/08/17 09:13:32;;;;;;;6.53;4.90;;;23.30;97.30;;;;;;5035230;28;20499;-44
2022/08/17 09:16:28;;;;;;;7.70;5.00;;;23.30;97.40;;;;;;5032749;28;20159;-45
2022/08/17 09:19:02;;;;;;;7.38;4.78;;;23.40;97.70;;;;;;5033090;28;20480;-43
2022/08/17 09:22:00;;;;;;;6.73;4.93;;;23.40;97.50;;;;;;5044320;28;20022;-47
2022/08/17 09:25:02;;;;;;;5.72;4.50;;;23.60;97.40;;;;;;5027969;28;20083;-47
2022/08/17 09:27:46;;;;;;;7.47;5.40;;;23.70;97.70;;;;;;5027211;28;20036;-46
2022/08/17 09:30:13;;;;;;;6.95;5.13;;;23.60;96.70;;;;;;5045423;28;20045;-49
2022/08/17 09:33:00;;;;;;;6.40;4.82;;;23.40;96.90;;;;;;5036470;28;20029;-45
2022/08/17 09:35:38;;;;;;;9.10;5.03;;;23.20;97.40;;;;;;5027991;28;20480;-46
2022/08/17 09:38:31;;;;;;;7.93;4.95;;;23.20;97.60;;;;;;5031445;28;20112;-51
2022/08/17 09:41:16;;;;;;;6.03;4.80;;;23.00;97.40;;;;;;5034422;28;20063;-45
2022/08/17 09:43:56;;;;;;;6.10;4.32;;;22.80;97.30;;;;;;5033896;28;20053;-52
2022/08/17 09:46:46;;;;;;;5.10;4.55;;;22.70;97.80;;;;;;5037921;28;20082;-49
2022/08/17 09:49:37;;;;;;;6.20;4.50;;;22.60;97.70;;;;;;5028366;28;20457;-48
2022/08/17 09:52:18;;;;;;;8.63;4.70;;;22.60;97.40;;;;;;5032740;28;20087;-46
2022/08/17 09:54:45;;;;;;;8.55;4.57;;;22.40;97.90;;;;;;5032896;28;20022;-45
2022/08/17 09:57:21;;;;;;;5.38;4.05;;;22.40;97.90;;;;;;5032029;28;20108;-47
2022/08/17 10:00:23;;;;;;;6.70;4.70;;;22.30;98.10;;;;;;5030291;28;20156;-46
2022/08/17 10:03:15;;;;;;;7.03;5.05;;;22.30;98.30;;;;;;5028212;28;20040;-49
2022/08/17 10:05:56;;;;;;;6.43;4.40;;;22.20;98.80;;;;;;5027069;28;20041;-48
2022/08/17 10:08:28;;;;;;;8.27;4.30;;;22.20;98.80;;;;;;5024721;28;20037;-46
2022/08/17 10:15:00;;;;;;;5.43;4.50;;;22.20;99.80;;;;;;5033917;28;20041;-45
2022/08/17 10:17:44;;;;;;;7.57;5.50;;;22.20;99.90;;;;;;4993506;28;20034;-48
2022/08/17 10:20:25;;;;;;;9.32;6.15;;;22.10;99.90;;;;;;4993394;28;20034;-47
2022/08/17 10:29:03;;;;;;;9.65;5.78;;;22.00;99.90;;;;;;5021246;28;20044;-53
2022/08/17 10:31:44;;;;;;;14.02;7.10;;;21.90;99.90;;;;;;5024883;28;20037;-48
2022/08/17 10:34:15;;;;;;;14.23;7.38;;;21.70;99.90;;;;;;5027365;28;20083;-49
2022/08/17 10:37:08;;;;;;;12.95;8.45;;;21.60;99.90;;;;;;5028933;28;20052;-48
2022/08/17 10:39:36;;;;;;;12.30;8.52;;;21.50;99.90;;;;;;5023789;28;20523;-51
2022/08/17 10:42:26;;;;;;;14.30;9.00;;;21.40;99.90;;;;;;5031575;28;20083;-46
2022/08/17 10:45:01;;;;;;;13.18;9.13;;;21.30;99.90;;;;;;5029553;28;20282;-56
2022/08/17 10:48:02;;;;;;;16.70;11.27;;;21.10;99.90;;;;;;5030276;28;20059;-48
2022/08/17 10:51:06;;;;;;;21.20;16.60;;;21.00;99.90;;;;;;5027880;28;20032;-55
2022/08/17 10:53:31;;;;;;;22.50;18.58;;;20.90;99.90;;;;;;5023944;28;20037;-47
2022/08/17 10:56:12;;;;;;;22.40;18.48;;;20.90;99.90;;;;;;5031736;28;20036;-50
2022/08/17 10:58:45;;;;;;;20.67;17.08;;;20.80;99.90;;;;;;5031663;28;20029;-47
2022/08/17 11:01:11;;;;;;;20.80;17.48;;;20.90;99.90;;;;;;5033457;28;20026;-55
2022/08/17 11:03:53;;;;;;;23.63;18.38;;;21.00;99.90;;;;;;5030554;28;20083;-43
2022/08/17 11:06:32;;;;;;;24.35;18.35;;;21.00;99.90;;;;;;5027639;28;20033;-44
2022/08/17 11:09:01;;;;;;;23.52;18.88;;;21.10;99.90;;;;;;5029619;28;20044;-51
2022/08/17 11:11:35;;;;;;;24.83;21.87;;;21.30;99.90;;;;;;5030122;28;20060;-44
2022/08/17 11:14:22;;;;;;;29.88;23.02;;;21.40;99.90;;;;;;5028495;28;20400;-44
2022/08/17 11:17:03;;;;;;;28.40;22.80;;;21.50;99.90;;;;;;5029964;28;20036;-52
2022/08/17 11:19:59;;;;;;;30.05;23.52;;;21.60;99.90;;;;;;5028929;28;20030;-47
2022/08/17 11:22:51;;;;;;;29.45;23.88;;;21.60;99.90;;;;;;5029684;28;20026;-45
2022/08/17 11:25:20;;;;;;;24.63;20.27;;;21.60;99.90;;;;;;5023847;28;20044;-44
2022/08/17 11:27:52;;;;;;;26.23;21.17;;;21.60;99.90;;;;;;5028857;28;20074;-46
2022/08/17 11:30:57;;;;;;;30.73;21.05;;;21.60;99.90;;;;;;5032321;28;20044;-46
2022/08/17 11:33:57;;;;;;;26.15;21.35;;;21.60;99.90;;;;;;5028030;28;20485;-45
2022/08/17 11:36:45;;;;;;;25.17;20.20;;;21.40;99.90;;;;;;5028623;28;20120;-45
2022/08/17 11:39:18;;;;;;;30.00;21.67;;;21.40;99.90;;;;;;5027324;28;20017;-47
2022/08/17 11:42:10;;;;;;;28.15;22.00;;;21.40;99.90;;;;;;5028859;28;20021;-52
2022/08/17 11:44:44;;;;;;;28.48;22.77;;;21.20;99.90;;;;;;5028901;28;20029;-49
2022/08/17 11:53:05;;;;;;;28.77;22.88;;;21.10;99.90;;;;;;5027831;28;20040;-44
2022/08/17 11:55:34;;;;;;;27.23;22.13;;;21.00;99.90;;;;;;5029124;28;20120;-44
2022/08/17 11:58:02;;;;;;;30.10;23.92;;;21.00;99.90;;;;;;5030386;28;20116;-52
2022/08/17 12:00:50;;;;;;;28.67;22.38;;;20.90;99.90;;;;;;5031270;28;20022;-47
2022/08/17 12:03:25;;;;;;;29.17;22.52;;;20.70;99.90;;;;;;5032729;28;20037;-45
2022/08/17 12:06:04;;;;;;;29.75;23.58;;;20.60;99.90;;;;;;5029069;28;20025;-42
2022/08/17 12:08:32;;;;;;;30.52;24.25;;;20.60;99.90;;;;;;5030095;28;20491;-49
2022/08/17 12:11:09;;;;;;;33.97;25.97;;;20.50;99.90;;;;;;5030371;28;20491;-45
2022/08/17 12:13:50;;;;;;;34.05;25.10;;;20.40;99.90;;;;;;5029204;28;20029;-48
2022/08/17 12:16:18;;;;;;;33.92;24.40;;;20.20;99.90;;;;;;5030750;28;20033;-46
2022/08/17 12:19:01;;;;;;;18.37;13.93;;;20.00;99.90;;;;;;5030336;28;20041;-54
2022/08/17 12:21:35;;;;;;;11.20;6.13;;;19.80;99.90;;;;;;5030561;28;20025;-47
2022/08/17 12:24:19;;;;;;;6.10;4.07;;;19.50;99.90;;;;;;5030489;28;20069;-43
2022/08/17 12:27:00;;;;;;;7.13;3.38;;;19.20;99.90;;;;;;5030629;28;20026;-44
2022/08/17 12:29:28;;;;;;;7.28;2.47;;;18.90;99.90;;;;;;5025412;28;20061;-52
2022/08/17 12:31:55;;;;;;;4.82;2.40;;;18.60;99.90;;;;;;5029113;28;20400;-51
2022/08/17 12:34:25;;;;;;;3.65;1.92;;;18.30;99.90;;;;;;5028234;28;20159;-46
2022/08/17 12:36:58;;;;;;;7.43;3.03;;;18.00;99.90;;;;;;5030245;28;20473;-48
2022/08/17 12:39:25;;;;;;;5.05;2.58;;;17.90;99.90;;;;;;5033535;28;20021;-48
2022/08/17 12:41:55;;;;;;;4.97;1.88;;;17.70;99.90;;;;;;5030408;28;20014;-51
2022/08/17 12:44:42;;;;;;;4.50;2.20;;;17.50;99.90;;;;;;5033214;28;20037;-49
2022/08/17 12:47:16;;;;;;;3.78;2.20;;;17.40;99.90;;;;;;5033684;28;20380;-45
2022/08/17 12:49:45;;;;;;;4.68;2.05;;;17.30;99.90;;;;;;5028516;28;20022;-46
2022/08/17 12:52:23;;;;;;;5.32;2.10;;;17.30;99.90;;;;;;5031483;28;20396;-47
2022/08/17 12:54:51;;;;;;;4.80;1.70;;;17.20;99.90;;;;;;5023094;28;20096;-48
2022/08/17 12:57:38;;;;;;;6.00;2.30;;;17.20;99.90;;;;;;5030359;28;20030;-46
2022/08/17 13:00:20;;;;;;;3.97;2.20;;;17.20;99.90;;;;;;5027087;28;20032;-46
2022/08/17 13:02:50;;;;;;;8.90;3.03;;;17.20;99.90;;;;;;5032767;28;20670;-43
2022/08/17 13:05:22;;;;;;;7.65;2.70;;;17.10;99.90;;;;;;5036637;28;20377;-54
2022/08/17 13:07:49;;;;;;;4.47;2.65;;;17.10;99.90;;;;;;5033732;28;20033;-49
2022/08/17 13:10:17;;;;;;;7.20;3.05;;;17.20;99.90;;;;;;5031736;28;20485;-54
2022/08/17 13:12:43;;;;;;;6.80;4.05;;;17.20;99.90;;;;;;5032441;28;20017;-46
2022/08/17 13:15:19;;;;;;;5.07;3.33;;;17.20;99.90;;;;;;5033304;28;20022;-49
2022/08/17 13:17:55;;;;;;;5.15;2.65;;;17.20;99.90;;;;;;5031807;28;20420;-51
2022/08/17 13:20:21;;;;;;;4.38;2.60;;;17.10;99.90;;;;;;5034803;28;20018;-54
2022/08/17 13:22:56;;;;;;;6.45;3.10;;;17.00;99.90;;;;;;5035127;28;20091;-55
2022/08/17 13:25:22;;;;;;;4.22;2.50;;;17.00;99.90;;;;;;5033586;28;20477;-50
2022/08/17 13:27:50;;;;;;;4.68;2.40;;;17.00;99.90;;;;;;5034090;28;20028;-52
2022/08/17 13:30:27;;;;;;;5.50;2.30;;;17.00;99.90;;;;;;5035701;28;20384;-49
2022/08/17 13:32:54;;;;;;;3.58;1.83;;;17.00;99.90;;;;;;5032747;28;20060;-46
2022/08/17 13:35:44;;;;;;;5.88;2.67;;;17.00;99.90;;;;;;5032839;28;20049;-52
2022/08/17 13:38:11;;;;;;;4.72;1.90;;;17.00;99.90;;;;;;5030785;28;20041;-51
2022/08/17 13:40:37;;;;;;;3.30;1.80;;;16.90;99.90;;;;;;5030798;28;20033;-57
2022/08/17 13:43:03;;;;;;;2.30;1.33;;;16.90;99.90;;;;;;5031109;28;20041;-57